Time;durP1;ratioP1;P1;durP2;ratioP2;P2;SDS_P1;SDS_P2;PMS_P1;PMS_P2;Temp;Humidity;BMP_temperature;BMP_pressure;BME280_temperature;BME280_humidity;BME280_pressure;Samples;Min_cycle;Max_cycle;Signal;HPM_P1;HPM_P2
2023/08/19 00:02:32;;;;;;;;;;;23.90;99.90;;;;;;8349887;28;2142971;-72
2023/08/19 00:06:38;;;;;;;;;;;23.90;99.90;;;;;;8436520;27;19970;-72
2023/08/19 00:10:40;;;;;;;;;;;23.80;99.90;;;;;;8395246;28;19930;-72
2023/08/19 00:14:42;;;;;;;;;;;23.80;99.90;;;;;;8413091;28;19927;-73
2023/08/19 00:18:43;;;;;;;;;;;23.80;99.90;;;;;;8395276;28;20299;-72
2023/08/19 00:22:45;;;;;;;;;;;23.80;99.90;;;;;;8413311;28;20400;-72
2023/08/19 00:26:47;;;;;;;;;;;23.80;99.90;;;;;;8417886;28;19928;-72
2023/08/19 00:30:48;;;;;;;;;;;23.80;99.90;;;;;;8421483;28;19955;-72
2023/08/19 00:34:50;;;;;;;;;;;23.80;99.90;;;;;;8401961;28;20287;-72
2023/08/19 00:38:52;;;;;;;;;;;23.80;99.90;;;;;;8400238;28;20367;-72
2023/08/19 00:42:54;;;;;;;;;;;23.80;99.90;;;;;;8434305;28;19928;-72
2023/08/19 00:46:55;;;;;;;;;;;23.70;99.90;;;;;;8424051;28;19924;-72
2023/08/19 00:50:58;;;;;;;;;;;23.70;99.90;;;;;;8420923;28;19928;-72
2023/08/19 00:55:00;;;;;;;;;;;23.70;99.90;;;;;;8421242;28;19928;-72
2023/08/19 00:59:02;;;;;;;;;;;23.70;99.90;;;;;;8396402;28;19932;-72
2023/08/19 01:03:06;;;;;;;;;;;23.70;99.90;;;;;;8425263;28;19933;-72
2023/08/19 01:07:08;;;;;;;;;;;23.70;99.90;;;;;;8390186;28;19931;-72
2023/08/19 01:11:14;;;;;;;;;;;23.70;99.90;;;;;;8439296;27;19931;-72
2023/08/19 01:15:26;;;;;;;;;;;23.70;99.90;;;;;;8421319;28;20449;-72
2023/08/19 01:19:29;;;;;;;;;;;23.60;99.90;;;;;;8414569;28;19924;-72
2023/08/19 01:23:37;;;;;;;;;;;23.60;99.90;;;;;;8407815;28;19924;-72
2023/08/19 01:27:39;;;;;;;;;;;23.60;99.90;;;;;;8380014;28;20286;-72
2023/08/19 01:31:41;;;;;;;;;;;23.60;99.90;;;;;;8389642;28;19927;-72
2023/08/19 01:35:49;;;;;;;;;;;23.60;99.90;;;;;;8405536;28;20276;-72
2023/08/19 01:39:52;;;;;;;;;;;23.50;99.90;;;;;;8421473;28;19924;-72
2023/08/19 01:43:56;;;;;;;;;;;23.50;99.90;;;;;;8407057;28;19923;-72
2023/08/19 01:47:58;;;;;;;;;;;23.50;99.90;;;;;;8421078;28;19978;-72
2023/08/19 01:52:00;;;;;;;;;;;23.50;99.90;;;;;;8431199;28;19959;-72
2023/08/19 01:56:01;;;;;;;;;;;23.50;99.90;;;;;;8414190;28;19924;-72
2023/08/19 02:00:07;;;;;;;;;;;23.50;99.90;;;;;;8423288;28;19953;-71
2023/08/19 02:04:09;;;;;;;;;;;23.50;99.90;;;;;;8393371;28;20474;-72
2023/08/19 02:08:10;;;;;;;;;;;23.50;99.90;;;;;;8426437;28;20357;-72
2023/08/19 02:12:12;;;;;;;;;;;23.50;99.90;;;;;;8416571;28;20264;-72
2023/08/19 02:16:14;;;;;;;;;;;23.50;99.90;;;;;;8424153;28;19928;-72
2023/08/19 02:20:16;;;;;;;;;;;23.40;99.90;;;;;;8424888;28;20367;-72
2023/08/19 02:24:17;;;;;;;;;;;23.50;99.90;;;;;;8412592;28;20347;-72
2023/08/19 02:28:19;;;;;;;;;;;23.40;99.90;;;;;;8438093;28;19928;-72
2023/08/19 02:32:21;;;;;;;;;;;23.50;99.90;;;;;;8414043;28;19924;-72
2023/08/19 02:36:22;;;;;;;;;;;23.40;99.90;;;;;;8433714;27;19936;-72
2023/08/19 02:40:24;;;;;;;;;;;23.40;99.90;;;;;;8411875;28;19928;-72
2023/08/19 02:44:26;;;;;;;;;;;23.40;99.90;;;;;;8436261;28;19982;-72
2023/08/19 02:48:28;;;;;;;;;;;23.40;99.90;;;;;;8419660;28;19932;-72
2023/08/19 02:52:30;;;;;;;;;;;23.40;99.90;;;;;;8429704;28;20300;-72
2023/08/19 02:56:31;;;;;;;;;;;23.40;99.90;;;;;;8398816;28;19928;-72
2023/08/19 03:00:37;;;;;;;;;;;23.40;99.90;;;;;;8429014;28;20435;-73
2023/08/19 03:04:39;;;;;;;;;;;23.40;99.90;;;;;;8394844;28;19925;-72
2023/08/19 03:08:40;;;;;;;;;;;23.40;99.90;;;;;;8420461;28;19924;-72
2023/08/19 03:12:42;;;;;;;;;;;23.40;99.90;;;;;;8436438;27;19924;-72
2023/08/19 03:16:43;;;;;;;;;;;23.40;99.90;;;;;;8428273;28;19932;-72
2023/08/19 03:20:53;;;;;;;;;;;23.40;99.90;;;;;;8418636;28;19967;-72
2023/08/19 03:24:55;;;;;;;;;;;23.40;99.90;;;;;;8418050;28;19924;-72
2023/08/19 03:28:56;;;;;;;;;;;23.40;99.90;;;;;;8431439;27;19927;-72
2023/08/19 03:32:58;;;;;;;;;;;23.40;99.90;;;;;;8417330;28;19928;-72
2023/08/19 03:37:00;;;;;;;;;;;23.40;99.90;;;;;;8425994;28;19936;-72
2023/08/19 03:41:01;;;;;;;;;;;23.40;99.90;;;;;;8410371;28;19987;-72
2023/08/19 03:45:03;;;;;;;;;;;23.40;99.90;;;;;;8410318;28;19924;-72
2023/08/19 03:49:05;;;;;;;;;;;23.40;99.90;;;;;;8423892;28;20410;-72
2023/08/19 03:53:06;;;;;;;;;;;23.40;99.90;;;;;;8415718;28;20432;-72
2023/08/19 04:02:11;;;;;;;;;;;23.40;99.90;;;;;;8424628;28;19926;-72
2023/08/19 04:06:13;;;;;;;;;;;23.40;99.90;;;;;;8421871;28;20415;-73
2023/08/19 04:10:15;;;;;;;;;;;23.40;99.90;;;;;;8389692;28;19935;-72
2023/08/19 04:14:16;;;;;;;;;;;23.40;99.90;;;;;;8432399;28;19962;-72
2023/08/19 04:18:18;;;;;;;;;;;23.40;99.90;;;;;;8415621;28;19928;-72
2023/08/19 04:22:20;;;;;;;;;;;23.40;99.90;;;;;;8411899;28;19969;-72
2023/08/19 04:26:21;;;;;;;;;;;23.40;99.90;;;;;;8419570;28;19924;-72
2023/08/19 04:30:23;;;;;;;;;;;23.30;99.90;;;;;;8412224;28;19989;-72
2023/08/19 04:34:25;;;;;;;;;;;23.40;99.90;;;;;;8425418;27;19928;-72
2023/08/19 04:38:27;;;;;;;;;;;23.40;99.90;;;;;;8404159;28;19929;-72
2023/08/19 04:42:28;;;;;;;;;;;23.40;99.90;;;;;;8411745;28;19927;-72
2023/08/19 04:46:31;;;;;;;;;;;23.40;99.90;;;;;;8402365;28;20029;-72
2023/08/19 04:50:32;;;;;;;;;;;23.50;99.90;;;;;;8404297;28;19929;-72
2023/08/19 04:54:34;;;;;;;;;;;23.50;99.90;;;;;;8439002;28;20398;-72
2023/08/19 04:58:36;;;;;;;;;;;23.50;99.90;;;;;;8413273;28;19924;-72
2023/08/19 05:02:38;;;;;;;;;;;23.40;99.90;;;;;;8426192;28;20014;-72
2023/08/19 05:06:40;;;;;;;;;;;23.50;99.90;;;;;;8435607;28;19927;-72
2023/08/19 05:10:41;;;;;;;;;;;23.50;99.90;;;;;;8423657;28;19929;-72
2023/08/19 05:14:43;;;;;;;;;;;23.50;99.90;;;;;;8430451;28;20284;-72
2023/08/19 05:18:45;;;;;;;;;;;23.40;99.90;;;;;;8405008;28;19929;-72
2023/08/19 05:22:46;;;;;;;;;;;23.40;99.90;;;;;;8419071;28;19939;-72
2023/08/19 05:26:48;;;;;;;;;;;23.40;99.90;;;;;;8400563;28;19973;-72
2023/08/19 05:30:50;;;;;;;;;;;23.40;99.90;;;;;;8409547;28;19924;-72
2023/08/19 05:34:51;;;;;;;;;;;23.40;99.90;;;;;;8427979;28;20354;-71
2023/08/19 05:38:53;;;;;;;;;;;23.40;99.90;;;;;;8406232;28;19930;-72
2023/08/19 05:42:55;;;;;;;;;;;23.40;99.90;;;;;;8439854;28;19923;-72
2023/08/19 05:46:57;;;;;;;;;;;23.30;99.90;;;;;;8418785;28;19928;-72
2023/08/19 05:50:59;;;;;;;;;;;23.40;99.90;;;;;;8395758;28;19927;-72
2023/08/19 05:55:00;;;;;;;;;;;23.40;99.90;;;;;;8418986;28;20346;-72
2023/08/19 05:59:03;;;;;;;;;;;23.40;99.90;;;;;;8420641;28;19931;-72
2023/08/19 06:03:05;;;;;;;;;;;23.40;99.90;;;;;;8436013;28;19978;-72
2023/08/19 06:07:06;;;;;;;;;;;23.50;99.90;;;;;;8421837;28;20330;-72
2023/08/19 06:11:08;;;;;;;;;;;23.50;99.90;;;;;;8410909;28;19923;-72
2023/08/19 06:15:10;;;;;;;;;;;23.50;99.90;;;;;;8417108;28;19954;-72
2023/08/19 06:19:11;;;;;;;;;;;23.60;99.90;;;;;;8427474;28;19929;-72
2023/08/19 06:23:14;;;;;;;;;;;23.60;99.90;;;;;;8418226;28;19948;-72
2023/08/19 06:27:15;;;;;;;;;;;23.60;99.90;;;;;;8402640;28;19924;-72
2023/08/19 06:31:17;;;;;;;;;;;23.60;99.90;;;;;;8428242;28;19925;-72
2023/08/19 06:35:22;;;;;;;;;;;23.70;99.90;;;;;;8429370;28;20368;-72
2023/08/19 06:39:27;;;;;;;;;;;23.70;99.90;;;;;;8419205;28;19924;-72
2023/08/19 06:43:30;;;;;;;;;;;23.80;99.90;;;;;;8430270;28;19927;-72
2023/08/19 06:47:32;;;;;;;;;;;23.80;99.90;;;;;;8409075;28;20009;-72
2023/08/19 06:51:34;;;;;;;;;;;23.80;99.90;;;;;;8416978;28;19934;-72
2023/08/19 06:55:39;;;;;;;;;;;23.90;99.90;;;;;;8421444;28;20329;-72
2023/08/19 06:59:45;;;;;;;;;;;24.00;99.90;;;;;;8394463;28;20261;-73
2023/08/19 07:03:49;;;;;;;;;;;24.00;99.90;;;;;;8394925;28;20326;-72
2023/08/19 07:23:03;;;;;;;;;;;24.50;99.90;;;;;;8398987;28;22587;-72
2023/08/19 07:27:05;;;;;;;;;;;24.50;99.90;;;;;;8398159;28;19927;-72
2023/08/19 07:31:09;;;;;;;;;;;24.60;99.90;;;;;;8393797;28;19933;-72
2023/08/19 07:35:11;;;;;;;;;;;24.60;99.90;;;;;;8397912;28;19932;-73
2023/08/19 07:39:12;;;;;;;;;;;24.70;99.90;;;;;;8414740;27;20394;-72
2023/08/19 07:43:14;;;;;;;;;;;24.80;99.90;;;;;;8403266;28;20387;-72
2023/08/19 07:47:15;;;;;;;;;;;25.00;99.90;;;;;;8394457;28;19931;-72
2023/08/19 07:51:17;;;;;;;;;;;25.00;99.90;;;;;;8396268;28;19924;-72
2023/08/19 07:55:19;;;;;;;;;;;25.10;99.90;;;;;;8396516;28;19928;-72
2023/08/19 07:59:21;;;;;;;;;;;25.10;99.90;;;;;;8400265;28;19924;-72
2023/08/19 08:03:23;;;;;;;;;;;25.10;99.90;;;;;;8394890;28;19936;-72
2023/08/19 08:07:24;;;;;;;;;;;25.10;99.90;;;;;;8398693;28;20019;-73
2023/08/19 08:11:26;;;;;;;;;;;25.10;99.90;;;;;;8410500;27;19925;-73
2023/08/19 08:15:28;;;;;;;;;;;25.10;99.90;;;;;;8395338;28;19924;-72
2023/08/19 08:19:30;;;;;;;;;;;25.10;99.90;;;;;;8395073;28;19927;-72
2023/08/19 08:23:32;;;;;;;;;;;25.10;99.90;;;;;;8407848;27;19928;-72
2023/08/19 08:27:34;;;;;;;;;;;25.10;99.90;;;;;;8397760;28;19924;-72
2023/08/19 08:31:58;;;;;;;;;;;25.10;99.90;;;;;;8400772;28;19935;-73
2023/08/19 08:36:00;;;;;;;;;;;25.10;99.90;;;;;;8397104;28;20458;-72
2023/08/19 08:40:03;;;;;;;;;;;25.10;99.90;;;;;;8399823;28;20352;-72
2023/08/19 08:44:08;;;;;;;;;;;25.10;99.90;;;;;;8394669;28;19994;-72
2023/08/19 08:48:11;;;;;;;;;;;25.20;99.90;;;;;;8394577;28;19932;-73
2023/08/19 08:52:16;;;;;;;;;;;25.20;99.90;;;;;;8396667;28;20295;-72
2023/08/19 08:56:18;;;;;;;;;;;25.20;99.90;;;;;;8394029;28;19984;-72
2023/08/19 09:00:20;;;;;;;;;;;25.20;99.90;;;;;;8381498;28;20449;-72
2023/08/19 09:04:22;;;;;;;;;;;25.20;99.90;;;;;;8396517;28;19947;-72
2023/08/19 09:08:45;;;;;;;;;;;25.20;99.90;;;;;;8396039;28;20333;-72
2023/08/19 09:12:53;;;;;;;;;;;25.20;99.90;;;;;;8395547;28;19928;-73
2023/08/19 09:16:54;;;;;;;;;;;25.20;99.90;;;;;;8383194;28;19928;-72
2023/08/19 09:20:56;;;;;;;;;;;25.20;99.90;;;;;;8393641;28;20293;-72
2023/08/19 09:24:58;;;;;;;;;;;25.20;99.90;;;;;;8385612;28;20315;-72
2023/08/19 09:28:59;;;;;;;;;;;25.20;99.90;;;;;;8394046;28;19925;-72
2023/08/19 09:33:02;;;;;;;;;;;25.20;99.90;;;;;;8393514;28;19924;-73
2023/08/19 09:37:07;;;;;;;;;;;25.20;99.90;;;;;;8397623;28;19924;-72
2023/08/19 09:41:10;;;;;;;;;;;25.20;99.90;;;;;;8394076;28;19928;-72
2023/08/19 09:45:16;;;;;;;;;;;25.30;99.90;;;;;;8393037;28;19928;-73
2023/08/19 09:49:21;;;;;;;;;;;25.40;99.90;;;;;;8393043;28;19924;-73
2023/08/19 09:53:26;;;;;;;;;;;25.50;99.90;;;;;;8392775;28;19924;-72
2023/08/19 09:57:34;;;;;;;;;;;25.50;99.90;;;;;;8384961;28;20394;-73
2023/08/19 10:01:36;;;;;;;;;;;25.50;99.90;;;;;;8392333;28;20334;-72
2023/08/19 10:05:41;;;;;;;;;;;25.50;99.90;;;;;;8390344;28;19964;-72
2023/08/19 10:09:43;;;;;;;;;;;25.60;99.90;;;;;;8390117;28;20280;-72
2023/08/19 10:13:46;;;;;;;;;;;25.60;99.90;;;;;;8383497;28;20380;-72
2023/08/19 10:17:50;;;;;;;;;;;25.50;99.90;;;;;;8390763;28;19924;-72
2023/08/19 10:21:52;;;;;;;;;;;25.50;99.90;;;;;;8386530;28;19951;-72
2023/08/19 10:25:54;;;;;;;;;;;25.40;99.90;;;;;;8384880;28;19924;-72
2023/08/19 10:29:57;;;;;;;;;;;25.40;99.90;;;;;;8397234;28;19925;-72
2023/08/19 10:33:58;;;;;;;;;;;25.50;99.90;;;;;;8380944;28;19932;-72
2023/08/19 10:38:10;;;;;;;;;;;25.60;99.90;;;;;;8372784;28;19984;-72
2023/08/19 10:42:13;;;;;;;;;;;25.80;99.90;;;;;;8393534;28;19924;-72
2023/08/19 10:51:18;;;;;;;;;;;25.70;99.90;;;;;;8388826;28;19943;-72
2023/08/19 10:55:20;;;;;;;;;;;25.60;99.90;;;;;;8389231;28;19930;-72
2023/08/19 10:59:21;;;;;;;;;;;25.60;99.90;;;;;;8403130;27;19986;-72
2023/08/19 11:03:24;;;;;;;;;;;25.60;99.90;;;;;;8388833;28;19924;-72
2023/08/19 11:07:26;;;;;;;;;;;25.60;99.90;;;;;;8390204;28;20304;-71
2023/08/19 11:11:28;;;;;;;;;;;25.50;99.90;;;;;;8391725;28;20379;-73
2023/08/19 11:15:30;;;;;;;;;;;25.50;99.90;;;;;;8387767;28;20266;-71
2023/08/19 11:19:31;;;;;;;;;;;25.50;99.90;;;;;;8396953;28;19924;-72
2023/08/19 11:23:33;;;;;;;;;;;25.50;99.90;;;;;;8394348;28;19986;-72
2023/08/19 11:27:35;;;;;;;;;;;25.40;99.90;;;;;;8389282;28;19929;-72
2023/08/19 11:31:37;;;;;;;;;;;25.50;99.90;;;;;;8391583;28;20002;-72
2023/08/19 11:35:43;;;;;;;;;;;25.60;99.90;;;;;;8395125;28;19924;-72
2023/08/19 11:39:45;;;;;;;;;;;25.60;99.90;;;;;;8395662;28;19928;-72
2023/08/19 11:43:47;;;;;;;;;;;25.70;99.90;;;;;;8392297;28;19932;-72
2023/08/19 11:47:48;;;;;;;;;;;25.60;99.90;;;;;;8392452;28;19928;-72
2023/08/19 11:51:50;;;;;;;;;;;25.50;99.90;;;;;;8391303;28;20287;-72
2023/08/19 11:55:57;;;;;;;;;;;25.50;99.90;;;;;;8392126;28;19931;-72
2023/08/19 11:59:59;;;;;;;;;;;25.50;99.90;;;;;;8397185;28;19963;-72
2023/08/19 12:04:01;;;;;;;;;;;25.50;99.90;;;;;;8409269;28;19932;-72
2023/08/19 12:08:03;;;;;;;;;;;25.30;99.90;;;;;;8393309;28;20023;-72
2023/08/19 12:12:08;;;;;;;;;;;25.20;99.90;;;;;;8407157;28;19925;-72
2023/08/19 12:16:10;;;;;;;;;;;25.10;99.90;;;;;;8397713;28;19924;-71
2023/08/19 12:20:12;;;;;;;;;;;25.00;99.90;;;;;;8393981;28;20628;-72
2023/08/19 12:24:13;;;;;;;;;;;24.90;99.90;;;;;;8408144;27;19928;-72
2023/08/19 12:28:15;;;;;;;;;;;24.80;99.90;;;;;;8393566;28;20716;-72
2023/08/19 12:32:17;;;;;;;;;;;24.80;99.90;;;;;;8397008;28;19924;-72
2023/08/19 12:36:19;;;;;;;;;;;24.80;99.90;;;;;;8389337;28;19955;-72
2023/08/19 12:40:20;;;;;;;;;;;24.80;99.90;;;;;;8382316;28;19931;-72
2023/08/19 12:44:22;;;;;;;;;;;24.70;99.90;;;;;;8393056;28;19925;-72
2023/08/19 12:48:25;;;;;;;;;;;24.40;99.90;;;;;;8391966;28;20387;-73
2023/08/19 12:52:26;;;;;;;;;;;24.20;99.90;;;;;;8397503;28;19924;-72
2023/08/19 12:56:28;;;;;;;;;;;24.00;99.90;;;;;;8393948;28;20383;-71
2023/08/19 13:00:30;;;;;;;;;;;23.80;99.90;;;;;;8389282;28;19928;-72
2023/08/19 13:04:31;;;;;;;;;;;23.50;99.90;;;;;;8389483;28;19997;-72
2023/08/19 13:08:35;;;;;;;;;;;23.30;99.90;;;;;;8389482;28;19932;-72
2023/08/19 13:12:37;;;;;;;;;;;23.20;99.90;;;;;;8391180;28;19924;-72
2023/08/19 13:16:39;;;;;;;;;;;23.00;99.90;;;;;;8393853;28;19924;-72
2023/08/19 13:20:41;;;;;;;;;;;22.90;99.90;;;;;;8396526;28;19955;-72
2023/08/19 13:24:43;;;;;;;;;;;22.80;99.90;;;;;;8396113;28;20579;-72
2023/08/19 13:28:44;;;;;;;;;;;22.80;99.90;;;;;;8392997;28;19924;-72
2023/08/19 13:32:46;;;;;;;;;;;22.70;99.90;;;;;;8390783;28;20292;-72
2023/08/19 13:36:48;;;;;;;;;;;22.70;99.90;;;;;;8405311;28;19991;-73
2023/08/19 13:40:49;;;;;;;;;;;22.70;99.90;;;;;;8399304;28;20359;-72
2023/08/19 13:44:51;;;;;;;;;;;22.70;99.90;;;;;;8390621;28;19928;-73
2023/08/19 13:48:55;;;;;;;;;;;22.70;99.90;;;;;;8394724;28;20388;-73
2023/08/19 13:52:57;;;;;;;;;;;22.80;99.90;;;;;;8391174;28;20405;-72
2023/08/19 14:07:19;;;;;;;;;;;22.90;99.90;;;;;;8399095;28;20382;-72
2023/08/19 14:11:21;;;;;;;;;;;23.00;99.90;;;;;;8395610;28;19935;-72
2023/08/19 14:15:23;;;;;;;;;;;23.00;99.90;;;;;;8393293;28;19924;-73
2023/08/19 14:19:25;;;;;;;;;;;23.00;99.90;;;;;;8401477;28;19975;-72
2023/08/19 14:23:27;;;;;;;;;;;23.10;99.90;;;;;;8404894;28;19994;-72
2023/08/19 14:27:28;;;;;;;;;;;23.10;99.90;;;;;;8441846;28;19924;-72
2023/08/19 14:31:30;;;;;;;;;;;23.10;99.90;;;;;;8435316;27;19938;-72
2023/08/19 14:35:32;;;;;;;;;;;23.20;99.90;;;;;;8428328;27;19999;-72
2023/08/19 14:39:33;;;;;;;;;;;23.30;99.90;;;;;;8434608;28;19953;-72
2023/08/19 14:43:35;;;;;;;;;;;23.50;99.90;;;;;;8431716;27;19930;-73
2023/08/19 14:47:37;;;;;;;;;;;23.70;99.90;;;;;;8430362;27;19932;-72
2023/08/19 14:51:38;;;;;;;;;;;23.80;99.90;;;;;;8431349;28;19928;-72
2023/08/19 14:55:40;;;;;;;;;;;24.00;99.90;;;;;;8445394;27;19939;-72
2023/08/19 14:59:42;;;;;;;;;;;24.00;99.90;;;;;;8432350;28;19932;-72
2023/08/19 15:03:43;;;;;;;;;;;24.20;99.90;;;;;;8437172;27;19928;-72
2023/08/19 15:07:45;;;;;;;;;;;24.20;99.90;;;;;;8421754;28;19977;-72
2023/08/19 15:11:47;;;;;;;;;;;24.40;99.90;;;;;;8415867;28;20325;-72
2023/08/19 15:15:48;;;;;;;;;;;24.50;99.90;;;;;;8422699;27;19969;-72
2023/08/19 15:19:51;;;;;;;;;;;24.50;99.90;;;;;;8427471;27;24248;-72
2023/08/19 15:23:52;;;;;;;;;;;24.70;99.90;;;;;;8427085;28;19962;-72
2023/08/19 15:27:54;;;;;;;;;;;25.00;99.90;;;;;;8429045;28;19932;-72
2023/08/19 15:31:56;;;;;;;;;;;25.10;99.90;;;;;;8424980;27;19954;-71
2023/08/19 15:35:57;;;;;;;;;;;25.10;99.90;;;;;;8424104;27;19931;-72
2023/08/19 15:40:05;;;;;;;;;;;25.00;99.90;;;;;;8423995;28;19931;-72
2023/08/19 15:44:07;;;;;;;;;;;24.80;99.90;;;;;;8423416;27;20273;-72
2023/08/19 15:48:08;;;;;;;;;;;24.80;99.90;;;;;;8420711;28;20287;-72
2023/08/19 15:52:10;;;;;;;;;;;25.10;99.90;;;;;;8427657;27;19928;-73
2023/08/19 15:56:12;;;;;;;;;;;25.30;99.90;;;;;;8425558;27;20402;-72
2023/08/19 16:00:14;;;;;;;;;;;25.20;99.90;;;;;;8418052;27;20616;-72
2023/08/19 16:04:16;;;;;;;;;;;24.90;99.90;;;;;;8430340;27;20014;-72
2023/08/19 16:08:18;;;;;;;;;;;25.00;99.90;;;;;;8411149;28;19924;-72
2023/08/19 16:12:19;;;;;;;;;;;25.60;99.90;;;;;;8406182;28;20368;-73
2023/08/19 16:16:21;;;;;;;;;;;25.90;99.90;;;;;;8428203;27;20056;-73
2023/08/19 16:20:23;;;;;;;;;;;25.70;99.90;;;;;;8425071;28;19935;-72
2023/08/19 16:24:24;;;;;;;;;;;25.50;99.90;;;;;;8433021;27;19931;-72
2023/08/19 16:28:26;;;;;;;;;;;25.20;99.90;;;;;;8419104;28;20037;-72
2023/08/19 16:32:28;;;;;;;;;;;25.10;99.90;;;;;;8426868;27;19928;-72
2023/08/19 16:36:29;;;;;;;;;;;25.20;99.90;;;;;;8444103;27;19932;-72
2023/08/19 16:40:34;;;;;;;;;;;25.50;99.90;;;;;;8419378;28;19951;-72
2023/08/19 16:44:36;;;;;;;;;;;25.60;99.90;;;;;;8407364;28;20391;-73
2023/08/19 16:48:38;;;;;;;;;;;25.40;99.90;;;;;;8425048;28;19931;-72
2023/08/19 16:52:39;;;;;;;;;;;25.10;99.90;;;;;;8420853;28;19932;-72
2023/08/19 16:56:41;;;;;;;;;;;25.00;99.90;;;;;;8438568;27;19969;-73
2023/08/19 17:00:43;;;;;;;;;;;25.50;99.90;;;;;;8423301;28;19924;-72
2023/08/19 17:04:45;;;;;;;;;;;26.00;99.90;;;;;;8426154;28;19969;-72
2023/08/19 17:08:46;;;;;;;;;;;26.30;99.90;;;;;;8420419;28;20330;-72
2023/08/19 17:12:48;;;;;;;;;;;26.10;99.90;;;;;;8423981;27;19935;-73
2023/08/19 17:16:50;;;;;;;;;;;25.70;99.90;;;;;;8423936;28;19931;-72
2023/08/19 17:20:57;;;;;;;;;;;25.30;99.90;;;;;;8423927;28;19924;-72
2023/08/19 17:24:58;;;;;;;;;;;25.10;99.90;;;;;;8419547;28;20509;-72
2023/08/19 17:29:00;;;;;;;;;;;25.10;99.90;;;;;;8422971;28;20508;-72
2023/08/19 17:33:03;;;;;;;;;;;25.00;99.90;;;;;;8415814;28;20060;-72
2023/08/19 17:37:05;;;;;;;;;;;25.00;99.90;;;;;;8418179;28;19924;-72
2023/08/19 17:41:06;;;;;;;;;;;25.00;99.90;;;;;;8418764;27;19947;-72
2023/08/19 17:45:08;;;;;;;;;;;24.90;99.90;;;;;;8410708;28;19924;-72
2023/08/19 17:49:10;;;;;;;;;;;24.80;99.90;;;;;;8424614;28;19924;-72
2023/08/19 17:53:12;;;;;;;;;;;24.80;99.90;;;;;;8431873;28;19943;-72
2023/08/19 17:57:13;;;;;;;;;;;24.70;99.90;;;;;;8428007;28;19938;-73
2023/08/19 18:01:15;;;;;;;;;;;24.70;99.90;;;;;;8432075;28;19940;-73
2023/08/19 18:05:17;;;;;;;;;;;24.60;99.90;;;;;;8411397;28;19938;-72
2023/08/19 18:09:20;;;;;;;;;;;24.60;99.90;;;;;;8412492;28;19939;-73
2023/08/19 18:13:22;;;;;;;;;;;24.50;99.90;;;;;;8433569;28;20426;-72
2023/08/19 18:17:24;;;;;;;;;;;24.40;99.90;;;;;;8414260;28;19924;-72
2023/08/19 18:21:25;;;;;;;;;;;24.40;99.90;;;;;;8429977;28;19924;-72
2023/08/19 18:25:27;;;;;;;;;;;24.30;99.90;;;;;;8429322;28;19981;-73
2023/08/19 18:29:29;;;;;;;;;;;24.20;99.90;;;;;;8434382;28;19930;-73
2023/08/19 18:33:31;;;;;;;;;;;24.10;99.90;;;;;;8434561;28;20536;-72
2023/08/19 18:37:32;;;;;;;;;;;24.00;99.90;;;;;;8420594;28;19932;-73
2023/08/19 18:41:34;;;;;;;;;;;23.90;99.90;;;;;;8423345;28;20424;-73
2023/08/19 18:45:36;;;;;;;;;;;23.80;99.90;;;;;;8407595;28;20261;-73
2023/08/19 18:49:38;;;;;;;;;;;23.70;99.90;;;;;;8424297;28;19968;-72
2023/08/19 18:53:40;;;;;;;;;;;23.60;99.90;;;;;;8434233;27;19924;-73
2023/08/19 18:57:41;;;;;;;;;;;23.50;99.90;;;;;;8424545;28;19938;-72
2023/08/19 19:01:43;;;;;;;;;;;23.30;99.90;;;;;;8423233;28;19932;-73
2023/08/19 19:05:48;;;;;;;;;;;23.20;99.90;;;;;;8416510;27;19935;-73
2023/08/19 19:09:50;;;;;;;;;;;23.10;99.90;;;;;;8429917;28;20383;-73
2023/08/19 19:13:51;;;;;;;;;;;23.00;99.90;;;;;;8420992;28;19928;-73
2023/08/19 19:17:54;;;;;;;;;;;22.90;99.90;;;;;;8430557;27;20324;-73
2023/08/19 19:21:56;;;;;;;;;;;22.80;99.90;;;;;;8421182;27;19967;-73
2023/08/19 19:26:04;;;;;;;;;;;22.70;99.90;;;;;;8431671;28;20284;-72
2023/08/19 19:30:06;;;;;;;;;;;22.60;99.90;;;;;;8406643;28;19928;-72
2023/08/19 19:34:08;;;;;;;;;;;22.50;99.90;;;;;;8429849;27;19924;-73
2023/08/19 19:38:10;;;;;;;;;;;22.40;99.90;;;;;;8432577;27;20014;-73
2023/08/19 19:42:12;;;;;;;;;;;22.30;99.90;;;;;;8429424;28;20402;-72
2023/08/19 19:46:13;;;;;;;;;;;22.30;99.90;;;;;;8424358;28;20287;-73
2023/08/19 19:50:15;;;;;;;;;;;22.20;99.90;;;;;;8434088;28;19927;-72
2023/08/19 19:54:17;;;;;;;;;;;22.20;99.90;;;;;;8433283;27;19923;-72
2023/08/19 19:58:18;;;;;;;;;;;22.10;99.90;;;;;;8432065;28;19931;-73
2023/08/19 20:02:20;;;;;;;;;;;22.00;99.90;;;;;;8435868;28;20099;-72
2023/08/19 20:06:22;;;;;;;;;;;21.90;99.90;;;;;;8432329;27;20372;-72
2023/08/19 20:10:24;;;;;;;;;;;21.80;99.90;;;;;;8427886;28;19931;-72
2023/08/19 20:14:28;;;;;;;;;;;21.80;99.90;;;;;;8416060;28;19932;-73
2023/08/19 20:18:30;;;;;;;;;;;21.70;99.90;;;;;;8433007;28;19924;-73
2023/08/19 20:22:32;;;;;;;;;;;21.60;99.90;;;;;;8428580;28;19979;-72
2023/08/19 20:26:33;;;;;;;;;;;21.50;99.90;;;;;;8432640;27;19935;-72
2023/08/19 20:30:35;;;;;;;;;;;21.50;99.90;;;;;;8430347;28;19924;-72
2023/08/19 20:34:41;;;;;;;;;;;21.40;99.90;;;;;;8418205;28;19975;-73
2023/08/19 20:38:43;;;;;;;;;;;21.30;99.90;;;;;;8428095;28;19935;-73
2023/08/19 20:42:45;;;;;;;;;;;21.30;99.90;;;;;;8430980;27;24441;-72
2023/08/19 20:46:46;;;;;;;;;;;21.20;99.90;;;;;;8423782;28;19997;-72
2023/08/19 20:50:48;;;;;;;;;;;21.10;99.90;;;;;;8427840;28;19932;-73
2023/08/19 20:54:50;;;;;;;;;;;21.10;99.90;;;;;;8429515;28;19931;-72
2023/08/19 20:58:51;;;;;;;;;;;21.10;99.90;;;;;;8435817;28;19969;-72
2023/08/19 21:02:53;;;;;;;;;;;21.10;99.90;;;;;;8432837;28;19924;-73
2023/08/19 21:06:55;;;;;;;;;;;21.10;99.90;;;;;;8451158;28;19928;-73
2023/08/19 21:10:59;;;;;;;;;;;21.00;99.90;;;;;;8451948;27;19977;-73
2023/08/19 21:15:01;;;;;;;;;;;21.00;99.90;;;;;;8436804;28;19992;-72
2023/08/19 21:19:03;;;;;;;;;;;21.00;99.90;;;;;;8451324;27;19923;-73
2023/08/19 21:23:04;;;;;;;;;;;21.00;99.90;;;;;;8449134;27;19928;-72
2023/08/19 21:27:07;;;;;;;;;;;21.00;99.90;;;;;;8434488;28;19935;-72
2023/08/19 21:31:09;;;;;;;;;;;21.00;99.90;;;;;;8446250;28;19928;-72
2023/08/19 21:35:10;;;;;;;;;;;21.00;99.90;;;;;;8449367;27;19924;-72
2023/08/19 21:39:12;;;;;;;;;;;20.90;99.90;;;;;;8456324;27;20307;-72
2023/08/19 21:43:14;;;;;;;;;;;20.90;99.90;;;;;;8443925;28;20295;-72
2023/08/19 21:47:16;;;;;;;;;;;20.90;99.90;;;;;;8435876;28;19930;-72
2023/08/19 21:51:17;;;;;;;;;;;20.90;99.90;;;;;;8448886;28;20336;-72
2023/08/19 21:55:19;;;;;;;;;;;20.80;99.90;;;;;;8441624;28;19924;-72
2023/08/19 21:59:21;;;;;;;;;;;20.70;99.90;;;;;;8446082;28;19935;-72
2023/08/19 22:03:22;;;;;;;;;;;20.80;99.90;;;;;;8448993;28;20292;-72
2023/08/19 22:07:24;;;;;;;;;;;20.80;99.90;;;;;;8455258;28;19927;-72
2023/08/19 22:11:26;;;;;;;;;;;20.80;99.90;;;;;;8449938;28;19924;-73
2023/08/19 22:15:28;;;;;;;;;;;20.80;99.90;;;;;;8440353;28;19931;-72
2023/08/19 22:19:29;;;;;;;;;;;20.80;99.90;;;;;;8449467;28;20671;-72
2023/08/19 22:23:31;;;;;;;;;;;20.80;99.90;;;;;;8425627;28;19932;-72
2023/08/19 22:27:33;;;;;;;;;;;20.70;99.90;;;;;;8429995;28;20340;-73
2023/08/19 22:31:36;;;;;;;;;;;20.70;99.90;;;;;;8438116;28;20475;-73
2023/08/19 22:35:41;;;;;;;;;;;20.70;99.90;;;;;;8443004;28;19930;-73
2023/08/19 22:39:42;;;;;;;;;;;20.60;99.90;;;;;;8443394;27;20268;-72
2023/08/19 22:43:44;;;;;;;;;;;20.60;99.90;;;;;;8459814;27;19924;-72
2023/08/19 22:47:46;;;;;;;;;;;20.50;99.90;;;;;;8456686;28;19924;-72
2023/08/19 22:51:47;;;;;;;;;;;20.40;99.90;;;;;;8432483;28;19954;-73
2023/08/19 22:55:49;;;;;;;;;;;20.40;99.90;;;;;;8476449;27;20381;-72
2023/08/19 22:59:51;;;;;;;;;;;20.30;99.90;;;;;;8447724;27;19924;-72
2023/08/19 23:03:52;;;;;;;;;;;20.30;99.90;;;;;;8457227;28;19924;-72
2023/08/19 23:07:55;;;;;;;;;;;20.30;99.90;;;;;;8438469;28;19977;-73
2023/08/19 23:11:56;;;;;;;;;;;20.30;99.90;;;;;;8444368;28;19977;-72
2023/08/19 23:15:58;;;;;;;;;;;20.30;99.90;;;;;;8453607;27;19923;-72
2023/08/19 23:19:59;;;;;;;;;;;20.30;99.90;;;;;;8449160;27;20387;-72
2023/08/19 23:24:01;;;;;;;;;;;20.40;99.90;;;;;;8448028;27;19923;-72
2023/08/19 23:28:03;;;;;;;;;;;20.40;99.90;;;;;;8447447;27;19924;-73
2023/08/19 23:32:05;;;;;;;;;;;20.40;99.90;;;;;;8432975;27;19935;-72
2023/08/19 23:36:07;;;;;;;;;;;20.40;99.90;;;;;;8448088;27;19928;-73
2023/08/19 23:40:09;;;;;;;;;;;20.40;99.90;;;;;;8446542;28;20440;-73
2023/08/19 23:44:11;;;;;;;;;;;20.40;99.90;;;;;;8448959;27;20406;-72
2023/08/19 23:48:13;;;;;;;;;;;20.40;99.90;;;;;;8469624;27;19973;-73
2023/08/19 23:52:15;;;;;;;;;;;20.40;99.90;;;;;;8446925;28;19931;-72
2023/08/19 23:56:17;;;;;;;;;;;20.40;99.90;;;;;;8430791;28;19931;-72
